createdAt,value
2018-08-24T00:02:12.492Z,77.57
2018-08-24T00:04:42.087Z,78.08
2018-08-24T00:07:11.661Z,77.51
2018-08-24T00:09:41.241Z,77.28
2018-08-24T00:12:10.849Z,77.96
2018-08-24T00:14:47.277Z,77.64
2018-08-24T00:17:21.968Z,78.48
2018-08-24T00:19:51.527Z,78.94
2018-08-24T00:22:21.167Z,78.24
2018-08-24T00:24:50.823Z,78.96
2018-08-24T00:27:20.522Z,79.28
2018-08-24T00:29:50.108Z,78.09
2018-08-24T00:32:19.649Z,78.81
2018-08-24T00:34:49.359Z,78.27
2018-08-24T00:37:18.934Z,78.79
2018-08-24T00:39:51.592Z,78.99
2018-08-24T00:42:21.233Z,79.31
2018-08-24T00:44:50.794Z,79.23
2018-08-24T00:47:20.369Z,78.65
2018-08-24T00:49:49.975Z,79.40
2018-08-24T00:52:20.124Z,79.14
2018-08-24T00:54:49.765Z,77.81
2018-08-24T00:57:19.432Z,77.99
2018-08-24T00:59:49.042Z,78.15
2018-08-24T01:02:18.697Z,78.65
2018-08-24T01:04:48.268Z,78.13
2018-08-24T01:07:17.803Z,77.79
2018-08-24T01:09:47.398Z,78.06
2018-08-24T01:12:17.747Z,77.73
2018-08-24T01:14:48.673Z,77.53
2018-08-24T01:17:23.396Z,78.47
2018-08-24T01:19:53.012Z,77.52
2018-08-24T01:22:22.605Z,77.05
2018-08-24T01:24:52.184Z,78.67
2018-08-24T01:27:21.792Z,77.88
2018-08-24T01:29:51.318Z,77.98
2018-08-24T01:32:20.851Z,77.97
2018-08-24T01:34:50.451Z,78.40
2018-08-24T01:37:20.054Z,78.25
2018-08-24T01:39:49.603Z,78.59
2018-08-24T01:42:19.312Z,79.02
2018-08-24T01:44:48.916Z,79.70
2018-08-24T01:47:18.457Z,81.98
2018-08-24T01:49:48.004Z,82.60
2018-08-24T01:52:17.542Z,83.29
2018-08-24T01:54:47.108Z,84.05
2018-08-24T01:57:16.642Z,85.13
2018-08-24T01:59:46.214Z,85.85
2018-08-24T02:02:15.973Z,86.42
2018-08-24T02:04:46.184Z,86.84
2018-08-24T02:07:15.820Z,88.02
2018-08-24T02:09:45.398Z,87.45
2018-08-24T02:12:20.256Z,87.76
2018-08-24T02:14:49.997Z,86.70
2018-08-24T02:17:24.890Z,87.40
2018-08-24T02:19:59.616Z,85.85
2018-08-24T02:22:29.190Z,87.56
2018-08-24T02:24:58.751Z,87.46
2018-08-24T02:27:28.326Z,87.10
2018-08-24T02:29:58.332Z,86.64
2018-08-24T02:32:27.856Z,86.67
2018-08-24T02:34:59.836Z,86.93
2018-08-24T02:37:30.773Z,86.35
2018-08-24T02:40:00.347Z,86.56
2018-08-24T02:42:29.989Z,87.06
2018-08-24T02:44:59.545Z,87.91
2018-08-24T02:47:29.057Z,88.68
2018-08-24T02:49:58.681Z,88.88
2018-08-24T02:52:28.232Z,90.19
2018-08-24T02:54:57.776Z,91.42
2018-08-24T02:57:27.322Z,92.08
2018-08-24T02:59:56.959Z,93.04
2018-08-24T03:02:27.004Z,94.31
2018-08-24T03:04:56.559Z,93.39
2018-08-24T03:07:26.498Z,94.03
2018-08-24T03:09:56.040Z,93.86
2018-08-24T03:12:25.619Z,93.33
2018-08-24T03:14:55.188Z,93.96
2018-08-24T03:17:29.870Z,94.51
2018-08-24T03:19:59.811Z,95.29
2018-08-24T03:22:29.353Z,96.14
2018-08-24T03:24:58.844Z,96.80
2018-08-24T03:27:28.364Z,96.46
2018-08-24T03:29:57.995Z,95.62
2018-08-24T03:32:27.553Z,95.18
2018-08-24T03:34:57.076Z,96.34
2018-08-24T03:37:26.848Z,96.46
2018-08-24T03:39:56.411Z,96.39
2018-08-24T03:42:26.008Z,96.93
2018-08-24T03:44:55.662Z,96.48
2018-08-24T03:47:25.215Z,95.19
2018-08-24T03:49:54.831Z,93.47
2018-08-24T03:52:24.483Z,92.18
2018-08-24T03:54:54.761Z,91.31
2018-08-24T03:57:24.397Z,91.47
2018-08-24T03:59:53.913Z,91.67
2018-08-24T04:02:23.458Z,90.93
2018-08-24T04:04:52.984Z,90.80
2018-08-24T04:07:22.637Z,91.09
2018-08-24T04:09:52.199Z,91.06
2018-08-24T04:12:21.779Z,91.46
2018-08-24T04:14:51.362Z,92.97
2018-08-24T04:17:26.384Z,92.46
2018-08-24T04:19:56.354Z,91.91
2018-08-24T04:22:25.985Z,93.60
2018-08-24T04:24:55.550Z,93.51
2018-08-24T04:27:25.179Z,94.12
2018-08-24T04:29:54.757Z,95.07
2018-08-24T04:32:24.484Z,94.75
2018-08-24T04:34:54.123Z,95.63
2018-08-24T04:37:23.650Z,94.48
2018-08-24T04:39:53.328Z,96.28
2018-08-24T04:42:23.050Z,95.79
2018-08-24T04:44:52.735Z,96.59
2018-08-24T04:47:26.892Z,96.45
2018-08-24T04:49:57.022Z,96.03
2018-08-24T04:52:26.981Z,96.49
2018-08-24T04:54:56.872Z,95.85
2018-08-24T04:57:26.425Z,96.04
2018-08-24T04:59:55.992Z,94.93
2018-08-24T05:02:25.626Z,95.17
2018-08-24T05:04:55.180Z,94.46
2018-08-24T05:07:24.868Z,92.68
2018-08-24T05:09:54.564Z,90.89
2018-08-24T05:12:24.593Z,89.83
2018-08-24T05:15:23.019Z,88.12
2018-08-24T05:17:52.595Z,85.86
2018-08-24T05:20:23.005Z,85.51
2018-08-24T05:22:52.720Z,84.19
2018-08-24T05:25:22.361Z,84.02
2018-08-24T05:27:51.925Z,81.99
2018-08-24T05:30:22.542Z,82.65
2018-08-24T05:32:52.206Z,80.56
2018-08-24T05:35:21.940Z,80.33
2018-08-24T05:37:51.628Z,79.22
2018-08-24T05:40:21.489Z,79.07
2018-08-24T05:42:51.278Z,77.63
2018-08-24T05:45:21.232Z,77.21
2018-08-24T05:47:51.030Z,76.62
2018-08-24T05:53:01.401Z,77.90
2018-08-24T05:55:31.487Z,78.06
2018-08-24T05:58:01.201Z,78.67
2018-08-24T06:00:35.943Z,77.71
2018-08-24T06:03:05.670Z,78.58
2018-08-24T06:05:35.269Z,78.85
2018-08-24T06:08:04.919Z,77.53
2018-08-24T06:10:34.696Z,77.94
2018-08-24T06:13:04.372Z,79.38
2018-08-24T06:15:34.274Z,78.69
2018-08-24T06:18:04.205Z,79.65
2018-08-24T06:20:33.826Z,80.49
2018-08-24T06:23:03.886Z,80.32
2018-08-24T06:25:33.535Z,79.79
2018-08-24T06:28:03.132Z,80.32
2018-08-24T06:30:33.937Z,80.89
2018-08-24T06:33:03.585Z,82.56
2018-08-24T06:35:33.412Z,79.08
2018-08-24T06:38:03.166Z,81.93
2018-08-24T06:40:32.936Z,80.98
2018-08-24T06:43:02.533Z,80.06
2018-08-24T06:45:32.208Z,80.29
2018-08-24T06:48:01.825Z,82.42
2018-08-24T06:50:31.540Z,81.02
2018-08-24T06:53:01.159Z,82.68
2018-08-24T06:55:30.779Z,82.10
2018-08-24T06:58:00.586Z,80.12
2018-08-24T07:00:32.280Z,79.33
2018-08-24T07:03:02.925Z,82.19
2018-08-24T07:05:32.650Z,80.91
2018-08-24T07:08:02.243Z,82.29
2018-08-24T07:10:32.095Z,82.36
2018-08-24T07:13:01.765Z,79.24
2018-08-24T07:15:31.503Z,79.62
2018-08-24T07:18:02.670Z,77.31
2018-08-24T07:20:32.738Z,78.03
2018-08-24T07:23:02.487Z,78.81
2018-08-24T07:25:32.096Z,78.37
2018-08-24T07:28:01.669Z,80.26
2018-08-24T07:30:31.189Z,80.03
2018-08-24T07:33:00.963Z,79.33
2018-08-24T07:35:30.570Z,76.94
2018-08-24T07:38:00.273Z,78.11
2018-08-24T07:40:30.914Z,79.48
2018-08-24T07:43:00.750Z,79.67
2018-08-24T07:45:31.240Z,79.53
2018-08-24T07:48:00.910Z,79.60
2018-08-24T07:50:30.619Z,80.53
2018-08-24T07:53:00.385Z,80.28
2018-08-24T07:55:30.126Z,79.59
2018-08-24T07:57:59.935Z,78.26
2018-08-24T08:00:29.593Z,79.27
2018-08-24T08:02:59.231Z,78.47
2018-08-24T08:05:28.976Z,79.54
2018-08-24T08:07:58.702Z,80.09
2018-08-24T08:10:32.374Z,81.37
2018-08-24T08:13:02.006Z,78.94
2018-08-24T08:15:31.576Z,78.19
2018-08-24T08:18:01.229Z,78.32
2018-08-24T08:20:30.859Z,77.34
2018-08-24T08:23:00.453Z,74.97
2018-08-24T08:25:30.182Z,75.36
2018-08-24T08:27:59.893Z,76.72
2018-08-24T08:30:29.533Z,73.88
2018-08-24T08:32:59.171Z,75.01
2018-08-24T08:35:28.804Z,77.07
2018-08-24T08:37:58.713Z,76.13
2018-08-24T08:40:28.298Z,76.45
2018-08-24T08:42:57.940Z,76.98
2018-08-24T08:45:27.704Z,78.03
2018-08-24T08:47:57.293Z,77.46
2018-08-24T08:50:26.950Z,76.60
2018-08-24T08:52:56.623Z,78.25
2018-08-24T08:55:26.519Z,76.86
2018-08-24T08:57:56.124Z,76.88
2018-08-24T09:00:25.763Z,75.80
2018-08-24T09:02:55.738Z,76.61
2018-08-24T09:05:25.367Z,76.07
2018-08-24T09:07:55.019Z,74.81
2018-08-24T09:10:24.692Z,75.73
2018-08-24T09:12:54.372Z,76.23
2018-08-24T09:15:23.938Z,75.10
2018-08-24T09:17:58.792Z,74.63
2018-08-24T09:20:33.534Z,76.00
2018-08-24T09:23:08.722Z,75.15
2018-08-24T09:25:43.491Z,74.71
2018-08-24T09:28:23.162Z,74.60
2018-08-24T09:30:56.459Z,72.58
2018-08-24T09:33:26.013Z,72.20
2018-08-24T09:35:55.665Z,70.52
2018-08-24T09:38:25.327Z,69.99
2018-08-24T09:40:57.985Z,69.46
2018-08-24T09:43:32.994Z,69.01
2018-08-24T09:46:02.650Z,68.52
2018-08-24T09:48:36.284Z,67.83
2018-08-24T09:51:11.180Z,67.31
2018-08-24T09:53:45.895Z,67.10
2018-08-24T09:56:15.713Z,64.09
2018-08-24T09:58:45.410Z,60.35
2018-08-24T10:01:20.285Z,61.64
2018-08-24T10:03:55.479Z,61.95
2018-08-24T10:06:30.413Z,63.46
2018-08-24T10:09:00.266Z,62.01
2018-08-24T10:11:29.917Z,60.86
2018-08-24T10:13:59.622Z,61.22
2018-08-24T10:16:29.328Z,62.22
2018-08-24T10:18:59.044Z,59.78
2018-08-24T10:21:29.589Z,60.05
2018-08-24T10:23:59.751Z,59.52
2018-08-24T10:26:29.690Z,57.39
2018-08-24T10:28:59.412Z,57.50
2018-08-24T10:31:29.011Z,58.38
2018-08-24T10:33:58.705Z,58.32
2018-08-24T10:36:28.241Z,56.32
2018-08-24T10:38:57.947Z,57.15
2018-08-24T10:41:27.515Z,57.62
2018-08-24T10:43:57.151Z,56.33
2018-08-24T10:46:26.705Z,55.76
2018-08-24T10:48:56.411Z,53.37
2018-08-24T10:51:26.092Z,53.68
2018-08-24T10:53:55.728Z,53.36
2018-08-24T10:56:25.360Z,50.85
2018-08-24T10:58:55.301Z,50.64
2018-08-24T11:01:25.081Z,48.86
2018-08-24T11:03:54.817Z,48.13
2018-08-24T11:06:24.549Z,48.41
2018-08-24T11:08:54.176Z,45.77
2018-08-24T11:11:24.381Z,43.19
2018-08-24T11:13:54.320Z,44.01
2018-08-24T11:16:23.910Z,42.92
2018-08-24T11:18:53.671Z,43.78
2018-08-24T11:21:23.257Z,44.82
2018-08-24T11:23:52.879Z,44.51
2018-08-24T11:26:22.689Z,43.54
2018-08-24T11:28:52.251Z,45.49
2018-08-24T11:31:21.946Z,48.64
2018-08-24T11:33:51.608Z,48.12
2018-08-24T11:36:21.433Z,47.20
2018-08-24T11:38:51.027Z,47.61
2018-08-24T11:41:20.718Z,44.24
2018-08-24T11:43:50.354Z,42.01
2018-08-24T11:46:20.010Z,40.37
2018-08-24T11:48:49.601Z,38.49
2018-08-24T11:51:19.261Z,38.29
2018-08-24T11:53:48.898Z,39.89
2018-08-24T11:56:18.487Z,40.56
2018-08-24T11:58:48.173Z,39.88
2018-08-24T12:01:17.891Z,41.79
2018-08-24T12:03:47.508Z,41.08
2018-08-24T12:06:17.198Z,40.12
2018-08-24T12:08:48.584Z,40.28
2018-08-24T12:11:18.568Z,39.31
2018-08-24T12:13:48.881Z,38.00
2018-08-24T12:16:18.846Z,37.05
2018-08-24T12:18:48.968Z,36.67
2018-08-24T12:21:18.975Z,37.21
2018-08-24T12:23:49.266Z,35.16
2018-08-24T12:26:19.228Z,34.58
2018-08-24T12:28:49.261Z,34.91
2018-08-24T12:31:19.651Z,34.48
2018-08-24T12:33:49.675Z,33.47
2018-08-24T12:36:19.709Z,36.02
2018-08-24T12:38:49.698Z,39.31
2018-08-24T12:41:20.475Z,41.13
2018-08-24T12:43:50.461Z,41.25
2018-08-24T12:46:20.391Z,41.05
2018-08-24T12:48:53.660Z,40.79
2018-08-24T12:51:23.736Z,38.63
2018-08-24T12:53:53.473Z,37.48
2018-08-24T12:56:23.872Z,38.74
2018-08-24T12:58:54.006Z,38.41
2018-08-24T13:01:23.796Z,36.24
2018-08-24T13:03:53.695Z,36.58
2018-08-24T13:06:23.424Z,36.19
2018-08-24T13:08:53.115Z,34.94
2018-08-24T13:11:22.775Z,35.58
2018-08-24T13:13:52.518Z,33.84
2018-08-24T13:16:22.262Z,33.86
2018-08-24T13:18:52.105Z,32.09
2018-08-24T13:21:21.837Z,33.61
2018-08-24T13:23:51.499Z,33.16
2018-08-24T13:26:21.128Z,33.88
2018-08-24T13:28:51.029Z,33.91
2018-08-24T13:31:20.778Z,34.14
2018-08-24T13:33:51.121Z,33.57
2018-08-24T13:36:21.089Z,33.86
2018-08-24T13:38:51.082Z,33.72
2018-08-24T13:41:20.855Z,33.22
2018-08-24T13:43:51.865Z,32.52
2018-08-24T13:46:23.107Z,32.92
2018-08-24T13:48:52.877Z,33.64
2018-08-24T13:51:22.662Z,32.68
2018-08-24T13:53:52.389Z,33.66
2018-08-24T13:56:22.105Z,34.14
2018-08-24T13:58:51.697Z,36.27
2018-08-24T14:01:21.333Z,36.27
2018-08-24T14:03:51.106Z,35.31
2018-08-24T14:06:20.924Z,35.89
2018-08-24T14:08:50.616Z,35.15
2018-08-24T14:11:20.442Z,34.99
2018-08-24T14:13:50.083Z,34.62
2018-08-24T14:16:19.733Z,36.79
2018-08-24T14:18:49.632Z,36.17
2018-08-24T14:21:19.259Z,36.76
2018-08-24T14:23:48.860Z,35.47
2018-08-24T14:26:18.601Z,34.80
2018-08-24T14:28:48.144Z,33.64
2018-08-24T14:31:18.305Z,33.02
2018-08-24T14:33:47.953Z,32.65
2018-08-24T14:36:17.689Z,32.50
2018-08-24T14:38:47.328Z,31.61
2018-08-24T14:41:17.554Z,32.45
2018-08-24T14:43:47.261Z,32.98
2018-08-24T14:46:17.022Z,32.54
2018-08-24T14:48:46.810Z,33.25
2018-08-24T14:51:16.640Z,34.02
2018-08-24T14:53:46.428Z,34.55
2018-08-24T14:56:16.331Z,33.84
2018-08-24T14:58:46.143Z,34.12
2018-08-24T15:01:16.306Z,34.42
2018-08-24T15:03:47.142Z,35.58
2018-08-24T15:06:16.971Z,35.27
2018-08-24T15:08:46.786Z,35.85
2018-08-24T15:11:16.713Z,35.64
2018-08-24T15:13:46.489Z,36.75
2018-08-24T15:16:16.286Z,35.69
2018-08-24T15:18:46.089Z,35.95
2018-08-24T15:21:15.785Z,36.66
2018-08-24T15:23:45.512Z,38.54
2018-08-24T15:26:15.503Z,38.76
2018-08-24T15:28:45.313Z,36.81
2018-08-24T15:31:15.400Z,37.03
2018-08-24T15:33:45.740Z,36.72
2018-08-24T15:36:15.819Z,37.25
2018-08-24T15:38:51.997Z,36.90
2018-08-24T15:41:22.266Z,36.01
2018-08-24T15:43:52.792Z,36.80
2018-08-24T15:46:23.990Z,36.81
2018-08-24T15:48:54.512Z,37.87
2018-08-24T15:51:24.342Z,36.73
2018-08-24T15:53:55.747Z,37.68
2018-08-24T15:56:26.476Z,38.43
2018-08-24T15:58:56.432Z,38.81
2018-08-24T16:01:26.197Z,39.36
2018-08-24T16:03:55.964Z,38.70
2018-08-24T16:06:25.765Z,38.92
2018-08-24T16:08:56.267Z,38.69
2018-08-24T16:11:26.260Z,38.47
2018-08-24T16:13:55.865Z,39.63
2018-08-24T16:16:26.542Z,39.45
2018-08-24T16:18:56.368Z,39.91
2018-08-24T16:21:26.219Z,40.50
2018-08-24T16:23:55.922Z,40.30
2018-08-24T16:26:26.425Z,40.28
2018-08-24T16:28:56.432Z,40.12
2018-08-24T16:31:26.264Z,41.18
2018-08-24T16:33:56.009Z,39.08
2018-08-24T16:36:26.029Z,39.62
2018-08-24T16:38:55.856Z,39.25
2018-08-24T16:41:25.567Z,40.48
2018-08-24T16:43:55.989Z,40.44
2018-08-24T16:46:25.701Z,40.42
2018-08-24T16:48:55.347Z,40.57
2018-08-24T16:51:25.220Z,40.88
2018-08-24T16:53:54.831Z,42.17
2018-08-24T16:56:24.710Z,41.76
2018-08-24T16:58:54.384Z,42.02
2018-08-24T17:01:24.210Z,41.60
2018-08-24T17:03:54.033Z,42.15
2018-08-24T17:06:23.794Z,43.11
2018-08-24T17:08:53.527Z,42.14
2018-08-24T17:11:23.346Z,42.05
2018-08-24T17:13:53.002Z,41.71
2018-08-24T17:16:22.804Z,40.90
2018-08-24T17:18:52.589Z,40.79
2018-08-24T17:21:22.407Z,39.62
2018-08-24T17:23:52.326Z,38.32
2018-08-24T17:26:21.938Z,37.74
2018-08-24T17:28:51.703Z,38.79
2018-08-24T17:31:21.513Z,38.16
2018-08-24T17:33:51.195Z,38.05
2018-08-24T17:36:21.015Z,38.35
2018-08-24T17:38:50.996Z,38.74
2018-08-24T17:41:21.148Z,39.31
2018-08-24T17:43:51.082Z,39.57
2018-08-24T17:46:21.570Z,40.95
2018-08-24T17:48:51.293Z,40.84
2018-08-24T17:51:21.397Z,41.06
2018-08-24T17:53:51.222Z,41.79
2018-08-24T17:56:21.139Z,41.71
2018-08-24T17:58:50.755Z,42.24
2018-08-24T18:01:20.645Z,42.17
2018-08-24T18:03:50.727Z,43.71
2018-08-24T18:06:20.581Z,44.97
2018-08-24T18:08:50.507Z,45.13
2018-08-24T18:11:20.409Z,45.27
2018-08-24T18:13:50.120Z,45.63
2018-08-24T18:16:19.863Z,45.23
2018-08-24T18:18:49.814Z,45.68
2018-08-24T18:21:19.561Z,46.79
2018-08-24T18:23:49.219Z,45.97
2018-08-24T18:26:18.887Z,46.49
2018-08-24T18:28:48.564Z,47.48
2018-08-24T18:31:18.259Z,46.73
2018-08-24T18:33:47.884Z,47.81
2018-08-24T18:36:17.514Z,46.67
2018-08-24T18:38:47.166Z,47.72
2018-08-24T18:41:16.792Z,46.86
2018-08-24T18:43:46.369Z,47.31
2018-08-24T18:46:16.036Z,47.26
2018-08-24T18:48:45.772Z,47.39
2018-08-24T18:51:15.311Z,46.26
2018-08-24T18:53:45.013Z,46.07
2018-08-24T18:56:14.604Z,45.72
2018-08-24T18:58:44.227Z,46.37
2018-08-24T19:01:13.874Z,46.28
2018-08-24T19:03:43.714Z,45.74
2018-08-24T19:06:13.374Z,45.98
2018-08-24T19:08:43.164Z,45.94
2018-08-24T19:11:17.908Z,45.95
2018-08-24T19:13:47.547Z,45.49
2018-08-24T19:16:17.157Z,45.47
2018-08-24T19:18:52.278Z,44.66
2018-08-24T19:22:29.826Z,45.73
2018-08-24T19:24:59.436Z,46.03
2018-08-24T19:27:34.137Z,45.62
2018-08-24T19:30:09.092Z,46.39
2018-08-24T19:32:38.971Z,45.75
2018-08-24T19:35:09.005Z,45.92
2018-08-24T19:37:38.912Z,46.48
2018-08-24T19:40:14.040Z,45.45
2018-08-24T19:42:43.796Z,46.61
2018-08-24T19:45:13.379Z,46.81
2018-08-24T19:47:48.374Z,46.37
2018-08-24T19:50:18.318Z,47.18
2018-08-24T19:52:48.037Z,46.56
2018-08-24T19:55:17.699Z,47.25
2018-08-24T19:57:52.482Z,47.20
2018-08-24T20:00:22.095Z,46.72
2018-08-24T20:02:52.015Z,47.17
2018-08-24T20:05:21.675Z,47.32
2018-08-24T20:07:56.297Z,47.58
2018-08-24T20:10:25.936Z,48.82
2018-08-24T20:12:55.604Z,47.88
2018-08-24T20:15:30.788Z,47.88
2018-08-24T20:18:00.481Z,47.34
2018-08-24T20:20:30.546Z,48.24
2018-08-24T20:23:00.329Z,47.38
2018-08-24T20:25:30.008Z,47.37
2018-08-24T20:27:59.616Z,46.49
2018-08-24T20:30:29.256Z,45.81
2018-08-24T20:32:58.829Z,46.53
2018-08-24T20:35:28.448Z,46.55
2018-08-24T20:37:58.130Z,46.58
2018-08-24T20:40:27.951Z,47.20
2018-08-24T20:42:58.201Z,46.55
2018-08-24T20:45:28.882Z,46.85
2018-08-24T20:47:58.453Z,47.21
2018-08-24T20:50:28.103Z,46.97
2018-08-24T20:52:57.870Z,46.92
2018-08-24T20:55:27.672Z,46.83
2018-08-24T20:57:57.277Z,46.98
2018-08-24T21:00:27.584Z,47.00
2018-08-24T21:02:57.292Z,47.55
2018-08-24T21:05:27.029Z,47.49
2018-08-24T21:07:57.048Z,47.00
2018-08-24T21:10:26.787Z,47.28
2018-08-24T21:12:56.493Z,47.55
2018-08-24T21:15:33.255Z,47.81
2018-08-24T21:18:02.975Z,48.31
2018-08-24T21:20:32.561Z,47.96
2018-08-24T21:23:02.505Z,48.07
2018-08-24T21:25:32.168Z,47.40
2018-08-24T21:28:01.769Z,48.46
2018-08-24T21:30:31.370Z,48.52
2018-08-24T21:33:00.928Z,47.98
2018-08-24T21:35:30.551Z,48.82
2018-08-24T21:38:00.450Z,49.22
2018-08-24T21:40:30.289Z,48.80
2018-08-24T21:43:07.051Z,49.58
2018-08-24T21:45:37.348Z,49.82
2018-08-24T21:48:07.473Z,49.84
2018-08-24T21:50:38.756Z,49.39
2018-08-24T21:53:08.385Z,49.59
2018-08-24T21:55:39.047Z,49.89
2018-08-24T21:58:08.947Z,49.56
2018-08-24T22:00:40.906Z,49.91
2018-08-24T22:03:11.881Z,51.00
2018-08-24T22:05:41.956Z,50.21
2018-08-24T22:08:11.714Z,50.32
2018-08-24T22:10:41.524Z,50.75
2018-08-24T22:13:11.296Z,51.67
2018-08-24T22:15:41.100Z,51.05
2018-08-24T22:18:10.739Z,51.96
2018-08-24T22:20:41.253Z,52.11
2018-08-24T22:23:14.080Z,51.77
2018-08-24T22:25:43.987Z,52.27
2018-08-24T22:28:13.657Z,51.64
2018-08-24T22:30:43.479Z,52.73
2018-08-24T22:33:13.204Z,52.88
2018-08-24T22:35:42.893Z,52.28
2018-08-24T22:38:12.836Z,52.49
2018-08-24T22:40:42.597Z,52.72
2018-08-24T22:43:17.328Z,53.50
2018-08-24T22:45:47.020Z,53.23
2018-08-24T22:48:16.717Z,52.50
2018-08-24T22:50:46.962Z,52.42
2018-08-24T22:53:16.550Z,53.64
2018-08-24T22:55:46.345Z,53.52
2018-08-24T22:58:15.907Z,52.90
2018-08-24T23:00:45.732Z,53.11
2018-08-24T23:03:16.175Z,53.68
2018-08-24T23:05:45.963Z,54.33
2018-08-24T23:08:15.676Z,54.20
2018-08-24T23:10:53.846Z,53.23
2018-08-24T23:13:24.158Z,54.33
2018-08-24T23:15:53.850Z,53.49
2018-08-24T23:18:23.507Z,53.35
2018-08-24T23:20:53.259Z,53.61
2018-08-24T23:23:23.051Z,54.07
2018-08-24T23:25:52.773Z,54.01
2018-08-24T23:28:22.375Z,54.27
2018-08-24T23:30:58.192Z,54.45
2018-08-24T23:33:28.013Z,54.99
2018-08-24T23:35:58.039Z,54.57
2018-08-24T23:38:27.764Z,54.53
2018-08-24T23:40:57.397Z,55.48
2018-08-24T23:43:27.618Z,54.80
2018-08-24T23:46:02.767Z,55.34
2018-08-24T23:48:32.333Z,55.12
2018-08-24T23:51:01.884Z,56.37
2018-08-24T23:53:31.848Z,56.85
2018-08-24T23:56:01.439Z,56.16
2018-08-24T23:58:30.968Z,56.48
